Time;durP1;ratioP1;P1;durP2;ratioP2;P2;SDS_P1;SDS_P2;PMS_P1;PMS_P2;Temp;Humidity;BMP_temperature;BMP_pressure;BME280_temperature;BME280_humidity;BME280_pressure;Samples;Min_cycle;Max_cycle;Signal;HPM_P1;HPM_P2
2022/01/12 00:00:18;;;;;;;6.80;6.20;;;;;;;3.32;75.11;100177.13;5073527;28;20442;-66
2022/01/12 00:02:45;;;;;;;6.17;5.43;;;;;;;3.35;75.18;100180.31;5074151;28;20450;-66
2022/01/12 00:05:12;;;;;;;6.50;5.93;;;;;;;3.36;75.71;100179.38;5073629;28;20499;-66
2022/01/12 00:07:39;;;;;;;6.27;5.77;;;;;;;3.44;74.59;100190.00;5073703;28;21174;-66
2022/01/12 00:10:06;;;;;;;6.50;6.00;;;;;;;3.50;74.83;100197.34;5074030;28;20442;-66
2022/01/12 00:12:33;;;;;;;6.43;5.93;;;;;;;3.49;75.03;100193.06;5073923;28;20430;-66
2022/01/12 00:15:01;;;;;;;5.97;5.47;;;;;;;3.42;74.50;100199.81;5073514;28;20188;-66
2022/01/12 00:17:28;;;;;;;6.37;5.77;;;;;;;3.40;74.67;100196.50;5073006;28;20818;-66
2022/01/12 00:19:55;;;;;;;6.33;5.93;;;;;;;3.44;74.26;100194.44;5073142;28;20473;-65
2022/01/12 00:22:21;;;;;;;6.77;6.23;;;;;;;3.43;73.99;100204.09;5073269;28;20934;-66
2022/01/12 00:25:10;;;;;;;6.30;5.77;;;;;;;3.52;75.14;100205.09;5073651;28;20499;-66
2022/01/12 00:33:11;;;;;;;5.93;5.53;;;;;;;3.52;73.56;100203.28;5073988;28;20484;-66
2022/01/12 00:35:38;;;;;;;6.30;5.80;;;;;;;3.37;74.36;100201.19;5073220;28;20200;-66
2022/01/12 00:38:05;;;;;;;5.97;5.47;;;;;;;3.46;74.77;100198.59;5073366;28;20434;-66
2022/01/12 00:40:32;;;;;;;6.40;5.83;;;;;;;3.56;74.02;100214.38;5073073;28;20501;-66
2022/01/12 00:42:59;;;;;;;6.10;5.60;;;;;;;3.61;74.45;100212.16;5073029;28;20671;-66
2022/01/12 00:45:27;;;;;;;6.77;6.17;;;;;;;3.47;73.95;100210.75;5072959;28;20434;-65
2022/01/12 00:47:54;;;;;;;6.17;5.73;;;;;;;3.49;74.65;100211.47;5072947;28;20821;-65
2022/01/12 00:50:21;;;;;;;6.07;5.57;;;;;;;3.48;73.60;100201.91;5073236;28;20442;-66
2022/01/12 00:52:49;;;;;;;6.57;6.00;;;;;;;3.61;74.17;100210.38;5073129;28;20442;-65
2022/01/12 00:55:15;;;;;;;6.33;5.90;;;;;;;3.66;74.42;100216.06;5072832;28;21024;-66
2022/01/12 00:57:42;;;;;;;6.47;5.97;;;;;;;3.73;74.59;100217.19;5072640;28;20442;-65
2022/01/12 01:00:10;;;;;;;6.37;5.80;;;;;;;3.71;74.63;100205.13;5072523;28;20519;-66
2022/01/12 01:02:38;;;;;;;7.20;6.70;;;;;;;3.72;74.44;100204.19;5072987;28;20499;-66
2022/01/12 01:05:06;;;;;;;7.03;6.47;;;;;;;3.75;74.21;100210.00;5072822;28;20515;-66
2022/01/12 01:07:33;;;;;;;7.37;6.67;;;;;;;3.74;74.90;100213.59;5072648;28;20196;-67
2022/01/12 01:10:04;;;;;;;6.57;5.97;;;;;;;3.44;74.98;100202.31;5072801;28;20257;-66
2022/01/12 01:12:32;;;;;;;7.10;6.60;;;;;;;3.57;75.26;100211.63;5072995;28;20280;-66
2022/01/12 01:15:05;;;;;;;7.00;6.30;;;;;;;3.62;73.87;100214.66;5072601;28;20465;-65
2022/01/12 01:25:49;;;;;;;7.00;6.40;;;;;;;3.47;74.75;100210.75;5072424;28;20409;-66
2022/01/12 01:28:19;;;;;;;7.33;6.77;;;;;;;3.51;74.58;100209.50;5072432;28;20487;-65
2022/01/12 01:30:46;;;;;;;6.77;6.27;;;;;;;3.48;74.68;100207.16;5072180;28;20487;-66
2022/01/12 01:33:16;;;;;;;6.53;5.97;;;;;;;3.47;75.38;100208.13;5072399;28;20227;-66
2022/01/12 01:35:50;;;;;;;6.83;6.13;;;;;;;3.49;75.23;100208.84;5072415;28;20434;-66
2022/01/12 01:38:17;;;;;;;7.43;6.73;;;;;;;3.45;74.49;100207.44;5072318;28;20426;-66
2022/01/12 01:40:44;;;;;;;6.60;6.10;;;;;;;3.26;74.16;100212.59;5071039;28;20503;-66
2022/01/12 01:43:19;;;;;;;7.53;6.90;;;;;;;3.25;75.43;100216.19;5071614;28;20859;-66
2022/01/12 01:54:03;;;;;;;7.20;6.70;;;;;;;2.96;76.30;100215.25;5072353;28;20994;-65
2022/01/12 01:56:30;;;;;;;6.33;5.83;;;;;;;2.85;76.52;100215.31;5072139;28;20434;-65
2022/01/12 01:58:57;;;;;;;6.53;6.07;;;;;;;2.82;77.20;100209.50;5071846;28;20473;-65
2022/01/12 02:01:24;;;;;;;6.87;6.37;;;;;;;2.72;76.76;100213.84;5071941;28;20450;-65
2022/01/12 02:03:53;;;;;;;6.73;6.33;;;;;;;2.80;77.30;100214.88;5072366;28;20441;-66
2022/01/12 02:06:22;;;;;;;6.57;5.97;;;;;;;2.77;76.61;100223.00;5072126;28;20492;-66
2022/01/12 02:08:49;;;;;;;7.37;6.67;;;;;;;2.75;76.66;100222.31;5071674;28;20949;-66
2022/01/12 02:11:16;;;;;;;6.97;6.47;;;;;;;2.81;76.90;100224.41;5072059;28;20930;-66
2022/01/12 02:13:43;;;;;;;6.73;6.23;;;;;;;2.76;77.33;100231.84;5071948;28;20456;-66
2022/01/12 02:16:09;;;;;;;7.47;6.87;;;;;;;2.52;77.35;100231.25;5074440;28;20442;-66
2022/01/12 02:19:05;;;;;;;7.13;6.63;;;;;;;2.63;78.24;100220.72;5076134;28;21020;-66
2022/01/12 02:35:34;;;;;;;7.73;7.10;;;;;;;2.60;75.88;100244.56;5075653;28;20444;-66
2022/01/12 02:40:49;;;;;;;7.27;6.67;;;;;;;2.13;77.29;100255.50;5075597;28;20406;-66
2022/01/12 02:43:26;;;;;;;8.80;8.10;;;;;;;1.96;78.68;100263.84;5075642;28;20429;-66
2022/01/12 02:51:30;;;;;;;7.80;7.00;;;;;;;2.10;76.32;100270.63;5075663;28;20489;-66
2022/01/12 02:53:59;;;;;;;8.53;7.80;;;;;;;2.19;76.82;100275.13;5076147;28;20457;-66
2022/01/12 02:56:27;;;;;;;8.20;7.43;;;;;;;2.27;76.57;100284.03;5075460;28;20499;-66
2022/01/12 02:58:56;;;;;;;7.40;6.80;;;;;;;2.25;75.82;100275.44;5074966;28;20560;-65
2022/01/12 03:04:06;;;;;;;8.80;8.00;;;;;;;2.39;74.49;100293.53;5075461;28;20410;-66
2022/01/12 03:06:37;;;;;;;7.63;6.93;;;;;;;2.32;75.81;100289.72;5074790;28;20952;-66
2022/01/12 03:09:07;;;;;;;7.53;6.93;;;;;;;2.33;74.54;100286.13;5074922;28;20437;-66
2022/01/12 03:11:35;;;;;;;7.93;7.13;;;;;;;2.31;75.53;100290.69;5074554;28;20922;-66
2022/01/12 03:14:03;;;;;;;8.37;7.67;;;;;;;2.43;74.69;100287.06;5074509;28;20500;-65
2022/01/12 03:16:30;;;;;;;7.93;7.23;;;;;;;2.46;74.62;100293.84;5074630;28;20445;-65
2022/01/12 03:19:01;;;;;;;7.93;7.13;;;;;;;2.51;74.82;100297.75;5074890;28;20470;-66
2022/01/12 03:21:31;;;;;;;8.00;7.20;;;;;;;2.53;74.74;100301.06;5074767;28;20429;-66
2022/01/12 03:23:57;;;;;;;8.10;7.40;;;;;;;2.26;74.87;100302.50;5074946;28;20445;-66
2022/01/12 03:26:29;;;;;;;6.97;6.27;;;;;;;2.20;73.81;100303.81;5073993;28;20442;-66
2022/01/12 03:28:57;;;;;;;8.33;7.53;;;;;;;2.20;74.73;100301.19;5074868;28;20438;-65
2022/01/12 03:31:27;;;;;;;7.33;6.70;;;;;;;2.03;74.20;100304.34;5073932;28;21012;-65
2022/01/12 03:33:58;;;;;;;7.53;6.93;;;;;;;2.02;74.52;100307.91;5075342;28;20477;-65
2022/01/12 04:09:25;;;;;;;9.83;8.93;;;;;;;1.76;74.16;100351.03;5073686;28;20821;-66
2022/01/12 04:11:52;;;;;;;9.00;8.13;;;;;;;1.81;73.67;100348.91;5074486;28;20507;-66
2022/01/12 04:14:18;;;;;;;7.90;7.30;;;;;;;1.81;73.33;100354.16;5073767;28;20438;-66
2022/01/12 04:16:45;;;;;;;8.40;7.70;;;;;;;1.82;73.30;100363.66;5073871;28;20442;-66
2022/01/12 04:19:12;;;;;;;8.17;7.47;;;;;;;1.92;73.12;100367.22;5073391;28;20488;-66
2022/01/12 04:21:43;;;;;;;8.20;7.60;;;;;;;1.92;73.37;100377.69;5073795;28;20468;-66
2022/01/12 04:24:11;;;;;;;7.93;7.30;;;;;;;1.99;73.38;100367.56;5073798;28;20442;-66
2022/01/12 04:26:38;;;;;;;8.47;7.77;;;;;;;1.96;73.13;100379.13;5073590;28;20524;-66
2022/01/12 04:29:06;;;;;;;8.03;7.23;;;;;;;1.87;73.50;100377.22;5073238;28;20445;-66
2022/01/12 04:31:33;;;;;;;7.33;6.70;;;;;;;1.88;73.34;100389.38;5073209;28;20438;-66
2022/01/12 04:34:00;;;;;;;7.77;7.07;;;;;;;1.92;73.27;100382.13;5073756;28;20478;-66
2022/01/12 04:36:26;;;;;;;7.83;7.13;;;;;;;1.92;72.50;100390.78;5072987;28;20442;-66
2022/01/12 04:38:53;;;;;;;8.87;8.03;;;;;;;1.83;73.24;100399.38;5072726;28;20499;-66
2022/01/12 04:41:24;;;;;;;8.80;7.83;;;;;;;1.62;73.41;100408.03;5072935;28;20441;-66
2022/01/12 04:43:52;;;;;;;8.23;7.43;;;;;;;1.65;73.78;100411.28;5072517;28;20483;-66
2022/01/12 04:46:26;;;;;;;7.70;7.00;;;;;;;1.73;73.84;100397.59;5072988;28;20507;-66
2022/01/12 04:49:07;;;;;;;8.27;7.50;;;;;;;1.81;73.24;100419.63;5073736;28;20434;-66
2022/01/12 04:51:34;;;;;;;9.27;7.67;;;;;;;1.96;72.36;100420.22;5072510;28;20440;-66
2022/01/12 04:54:01;;;;;;;10.67;8.93;;;;;;;1.95;72.20;100422.00;5072432;28;20433;-66
2022/01/12 04:56:30;;;;;;;7.93;7.33;;;;;;;1.97;71.82;100429.75;5072210;28;20434;-65
2022/01/12 04:58:57;;;;;;;8.70;8.00;;;;;;;1.91;71.52;100430.22;5072290;28;20480;-66
2022/01/12 05:01:26;;;;;;;9.53;8.73;;;;;;;1.89;72.35;100425.09;5073069;28;20437;-65
2022/01/12 05:09:43;;;;;;;9.87;8.87;;;;;;;1.90;73.40;100437.25;5071614;28;20809;-65
2022/01/12 05:15:04;;;;;;;8.43;7.63;;;;;;;1.90;72.24;100447.72;5072256;28;20410;-65
2022/01/12 05:17:31;;;;;;;8.37;7.53;;;;;;;1.92;72.39;100453.66;5072359;28;20477;-65
2022/01/12 05:19:58;;;;;;;8.40;7.60;;;;;;;1.92;73.29;100452.84;5071678;28;21070;-66
2022/01/12 05:22:25;;;;;;;8.27;7.47;;;;;;;1.90;72.55;100449.50;5072461;28;20491;-66
2022/01/12 05:24:52;;;;;;;8.97;7.70;;;;;;;1.88;73.62;100454.03;5072380;28;20434;-65
2022/01/12 05:27:20;;;;;;;8.60;7.90;;;;;;;1.90;73.40;100457.34;5071871;28;20886;-65
2022/01/12 05:29:47;;;;;;;8.73;7.90;;;;;;;1.93;72.50;100468.44;5072203;28;20535;-67
2022/01/12 05:32:13;;;;;;;8.97;8.07;;;;;;;1.92;71.92;100464.13;5071890;28;20446;-65
2022/01/12 05:34:41;;;;;;;9.00;7.90;;;;;;;2.01;71.76;100473.94;5072247;28;20433;-66
2022/01/12 05:37:08;;;;;;;9.03;8.07;;;;;;;2.02;71.91;100478.22;5071769;28;21034;-66
2022/01/12 05:39:34;;;;;;;8.47;7.67;;;;;;;1.94;71.27;100480.59;5071866;28;20473;-65
2022/01/12 05:42:01;;;;;;;8.07;7.33;;;;;;;1.85;71.79;100470.81;5072093;28;20442;-66
2022/01/12 05:44:29;;;;;;;8.07;7.37;;;;;;;1.87;70.41;100494.28;5071833;28;20434;-65
2022/01/12 05:46:56;;;;;;;4.63;4.23;;;;;;;2.20;85.93;100455.00;5071795;28;20437;-65
2022/01/12 05:49:34;;;;;;;10.27;8.37;;;;;;;2.49;72.66;100491.06;5071465;28;20528;-63
2022/01/12 05:52:01;;;;;;;11.13;9.40;;;;;;;2.41;72.08;100498.69;5071748;28;20518;-65
2022/01/12 05:54:27;;;;;;;14.77;10.07;;;;;;;2.34;71.26;100509.78;5071646;28;20495;-64
2022/01/12 05:56:54;;;;;;;11.40;9.57;;;;;;;2.27;70.91;100504.19;5071438;28;20446;-66
2022/01/12 05:59:21;;;;;;;9.37;8.47;;;;;;;2.20;70.22;100513.47;5071282;28;20496;-64
2022/01/12 06:01:49;;;;;;;8.47;7.60;;;;;;;1.79;70.22;100521.03;5071213;28;20500;-65
2022/01/12 06:04:16;;;;;;;8.33;7.63;;;;;;;1.68;70.24;100526.25;5071542;28;20508;-65
2022/01/12 06:06:42;;;;;;;9.00;8.20;;;;;;;1.70;71.73;100533.97;5071685;28;20441;-65
2022/01/12 06:09:09;;;;;;;9.90;8.90;;;;;;;1.77;71.17;100536.03;5070798;28;20520;-64
2022/01/12 06:11:36;;;;;;;14.10;11.30;;;;;;;1.72;70.41;100543.38;5070846;28;21236;-65
2022/01/12 06:14:03;;;;;;;28.17;16.27;;;;;;;1.56;71.01;100547.28;5071277;28;20505;-67
2022/01/12 06:16:30;;;;;;;31.53;16.60;;;;;;;1.49;71.74;100553.91;5071209;28;20649;-66
2022/01/12 06:18:58;;;;;;;9.63;8.60;;;;;;;1.52;71.25;100561.53;5070671;28;20438;-67
2022/01/12 06:21:24;;;;;;;9.93;8.40;;;;;;;1.51;71.69;100552.84;5067743;28;20539;-66
2022/01/12 06:23:51;;;;;;;11.73;10.60;;;;;;;1.27;72.39;100562.50;5071355;28;20491;-66
2022/01/12 06:26:21;;;;;;;11.80;10.57;;;;;;;1.22;72.16;100569.81;5071182;28;20437;-66
2022/01/12 06:29:04;;;;;;;13.17;11.20;;;;;;;1.18;71.86;100572.78;5071174;28;20520;-67
2022/01/12 06:31:31;;;;;;;29.10;20.57;;;;;;;0.81;72.65;100574.56;5066383;28;20453;-66
2022/01/12 06:33:59;;;;;;;15.33;11.57;;;;;;;0.93;73.05;100584.16;5068069;28;20538;-67
2022/01/12 06:36:26;;;;;;;10.10;9.10;;;;;;;0.84;74.04;100584.81;5068603;28;20443;-67
2022/01/12 06:39:00;;;;;;;10.60;9.50;;;;;;;1.01;73.80;100589.69;5068406;28;20437;-65
2022/01/12 06:41:27;;;;;;;9.10;8.30;;;;;;;0.66;74.09;100588.72;5064727;28;20465;-64
2022/01/12 06:43:53;;;;;;;7.63;6.93;;;;;;;0.95;73.41;100592.75;5068281;28;20440;-63
2022/01/12 06:46:25;;;;;;;10.83;8.17;;;;;;;1.00;72.04;100605.47;5063302;28;20518;-63
2022/01/12 06:48:53;;;;;;;9.17;8.27;;;;;;;1.13;72.20;100601.03;5066422;28;20444;-63
2022/01/12 06:51:21;;;;;;;8.90;8.13;;;;;;;1.13;72.98;100601.88;5065628;28;20507;-65
2022/01/12 06:53:48;;;;;;;9.63;8.60;;;;;;;1.06;72.53;100608.50;5065756;28;20438;-64
2022/01/12 06:56:17;;;;;;;8.47;7.90;;;;;;;1.15;73.04;100620.94;5066368;28;20442;-64
2022/01/12 06:58:45;;;;;;;8.00;7.23;;;;;;;1.07;72.71;100618.03;5066575;28;20449;-64
2022/01/12 07:01:12;;;;;;;9.60;8.53;;;;;;;1.16;73.06;100614.75;5071100;28;20477;-65
2022/01/12 07:03:38;;;;;;;9.17;8.37;;;;;;;1.11;72.85;100624.72;5074888;28;20429;-64
2022/01/12 07:06:05;;;;;;;8.10;7.30;;;;;;;1.30;71.66;100625.06;5075239;28;20434;-64
2022/01/12 07:08:54;;;;;;;8.60;7.97;;;;;;;1.15;73.40;100627.94;5071731;28;20480;-65
2022/01/12 07:11:21;;;;;;;9.63;7.20;;;;;;;1.23;72.89;100631.72;5071325;28;20987;-65
2022/01/12 07:13:48;;;;;;;9.03;8.23;;;;;;;1.35;72.28;100645.69;5072294;28;20430;-65
2022/01/12 07:16:15;;;;;;;13.67;10.40;;;;;;;1.25;71.91;100645.50;5070059;28;20438;-64
2022/01/12 07:18:41;;;;;;;8.77;7.97;;;;;;;1.32;70.50;100646.75;5070791;28;20491;-65
2022/01/12 07:21:08;;;;;;;9.70;7.97;;;;;;;1.30;70.69;100653.84;5072434;28;20483;-64
2022/01/12 07:23:35;;;;;;;8.50;7.80;;;;;;;1.41;70.00;100648.69;5071247;28;20499;-64
2022/01/12 07:26:03;;;;;;;8.50;7.67;;;;;;;1.48;69.32;100663.03;5073800;28;20439;-64
2022/01/12 07:28:30;;;;;;;7.30;6.70;;;;;;;1.44;68.88;100663.34;5074546;28;20497;-64
2022/01/12 07:30:56;;;;;;;8.87;8.17;;;;;;;1.24;69.83;100662.16;5073452;28;20450;-64
2022/01/12 07:33:25;;;;;;;10.00;8.83;;;;;;;1.33;70.59;100666.72;5072812;28;20476;-65
2022/01/12 07:35:53;;;;;;;9.10;8.13;;;;;;;1.30;70.27;100661.72;5073879;28;20949;-65
2022/01/12 07:38:19;;;;;;;8.10;7.30;;;;;;;1.33;68.94;100677.19;5073992;28;20873;-65
2022/01/12 07:40:46;;;;;;;9.50;8.50;;;;;;;1.27;69.68;100677.66;5073213;28;20531;-64
2022/01/12 07:43:14;;;;;;;9.27;8.33;;;;;;;1.33;69.51;100677.19;5071611;28;20442;-65
2022/01/12 07:45:41;;;;;;;10.33;7.93;;;;;;;1.21;70.37;100678.06;5072021;28;20489;-65
2022/01/12 07:48:08;;;;;;;11.43;7.80;;;;;;;1.23;68.60;100686.66;5072017;28;20441;-65
2022/01/12 07:50:34;;;;;;;10.23;7.93;;;;;;;1.29;69.02;100687.97;5071842;28;20530;-65
2022/01/12 07:53:01;;;;;;;8.13;7.33;;;;;;;1.40;68.56;100688.91;5071834;28;20442;-65
2022/01/12 07:55:28;;;;;;;11.93;8.60;;;;;;;1.45;68.89;100692.03;5071908;28;20496;-65
2022/01/12 07:57:54;;;;;;;18.87;10.67;;;;;;;1.25;69.36;100691.75;5073768;28;20507;-65
2022/01/12 08:00:22;;;;;;;9.10;8.20;;;;;;;1.36;69.35;100711.00;5073260;28;21008;-65
2022/01/12 08:02:50;;;;;;;10.20;9.30;;;;;;;1.39;69.86;100713.41;5073811;28;20499;-65
2022/01/12 08:05:18;;;;;;;8.27;7.47;;;;;;;1.27;69.73;100685.50;5073529;28;20442;-66
2022/01/12 08:07:45;;;;;;;11.73;8.63;;;;;;;1.42;68.88;100713.19;5073641;28;20499;-67
2022/01/12 08:10:12;;;;;;;7.57;6.90;;;;;;;1.29;69.36;100728.09;5073304;28;20445;-66
2022/01/12 08:12:39;;;;;;;11.30;9.57;;;;;;;1.31;69.87;100727.97;5073214;28;20488;-66
2022/01/12 08:15:08;;;;;;;8.40;7.57;;;;;;;1.45;67.85;100728.69;5073173;28;21018;-66
2022/01/12 08:17:37;;;;;;;8.33;7.63;;;;;;;1.48;67.13;100727.63;5072300;28;20450;-66
2022/01/12 08:20:06;;;;;;;15.17;11.03;;;;;;;1.56;66.86;100747.09;5073475;28;20499;-67
2022/01/12 08:22:33;;;;;;;8.43;7.70;;;;;;;1.64;67.06;100742.16;5073225;28;20440;-66
2022/01/12 08:25:00;;;;;;;12.63;9.93;;;;;;;1.79;66.56;100748.88;5072999;28;20512;-64
2022/01/12 08:27:26;;;;;;;12.10;10.10;;;;;;;1.63;66.38;100743.06;5072973;28;20492;-67
2022/01/12 08:29:59;;;;;;;10.40;9.40;;;;;;;1.53;66.50;100747.31;5072793;28;20499;-67
2022/01/12 08:32:26;;;;;;;8.73;7.90;;;;;;;1.55;66.49;100753.25;5069416;28;20477;-68
2022/01/12 08:34:54;;;;;;;8.00;7.30;;;;;;;1.67;66.08;100759.44;5048990;28;20519;-67
2022/01/12 08:37:24;;;;;;;8.97;8.10;;;;;;;1.75;65.38;100747.44;5049565;28;20438;-68
2022/01/12 08:39:51;;;;;;;17.53;11.63;;;;;;;1.78;66.03;100741.13;5049025;28;20866;-68
2022/01/12 08:42:18;;;;;;;12.57;9.80;;;;;;;1.82;66.39;100742.59;5070462;28;20474;-68
2022/01/12 08:44:45;;;;;;;12.27;9.63;;;;;;;1.92;65.87;100749.69;5067551;28;20946;-68
2022/01/12 08:47:11;;;;;;;10.47;8.07;;;;;;;1.93;65.33;100759.22;5068546;28;20515;-67
2022/01/12 08:49:38;;;;;;;15.33;9.87;;;;;;;1.86;66.04;100752.75;5068575;28;20457;-68
2022/01/12 08:52:07;;;;;;;11.07;9.47;;;;;;;1.89;66.33;100749.06;5068637;28;20480;-69
2022/01/12 08:54:33;;;;;;;11.90;9.60;;;;;;;1.94;66.20;100758.28;5069852;28;21015;-68
2022/01/12 08:57:00;;;;;;;15.20;9.73;;;;;;;2.13;65.25;100758.63;5070672;28;20442;-66
2022/01/12 08:59:27;;;;;;;10.17;8.53;;;;;;;2.12;64.89;100764.78;5070159;28;20442;-67
2022/01/12 09:01:53;;;;;;;9.90;8.80;;;;;;;2.04;65.72;100756.66;5069922;28;20554;-67
2022/01/12 09:04:21;;;;;;;10.23;8.17;;;;;;;2.10;64.52;100764.09;5072168;28;20438;-68
2022/01/12 09:06:48;;;;;;;10.33;8.80;;;;;;;2.21;62.64;100766.75;5072290;28;20893;-67
2022/01/12 09:09:16;;;;;;;13.13;10.57;;;;;;;2.14;65.26;100755.06;5072593;28;20488;-67
2022/01/12 09:11:42;;;;;;;10.07;8.40;;;;;;;2.20;64.26;100765.06;5072525;28;20865;-68
2022/01/12 09:14:09;;;;;;;8.80;8.00;;;;;;;2.20;64.40;100756.38;5072796;28;20488;-67
2022/01/12 09:16:36;;;;;;;8.53;7.67;;;;;;;2.22;64.32;100763.19;5075722;28;20445;-68
2022/01/12 09:19:03;;;;;;;7.50;6.80;;;;;;;2.25;63.46;100762.94;5087931;28;20448;-67
2022/01/12 09:21:30;;;;;;;7.93;7.20;;;;;;;2.19;63.37;100763.41;5068130;28;20478;-66
2022/01/12 09:23:57;;;;;;;10.17;8.03;;;;;;;2.31;63.35;100762.50;5068732;28;20500;-66
2022/01/12 09:26:25;;;;;;;8.83;8.03;;;;;;;2.29;63.11;100774.88;5068383;28;20437;-66
2022/01/12 09:28:51;;;;;;;13.90;10.13;;;;;;;2.33;62.81;100771.09;5069761;28;20503;-67
2022/01/12 09:31:18;;;;;;;11.40;9.63;;;;;;;2.32;63.38;100769.41;5070278;28;20456;-66
2022/01/12 09:33:49;;;;;;;10.67;9.57;;;;;;;2.37;63.67;100776.97;5069812;28;20984;-66
2022/01/12 09:36:16;;;;;;;11.57;8.90;;;;;;;2.13;65.31;100769.13;5070442;28;20939;-65
2022/01/12 09:38:43;;;;;;;7.67;7.07;;;;;;;2.10;63.59;100766.69;5071790;28;20495;-67
2022/01/12 09:41:10;;;;;;;10.33;8.33;;;;;;;2.22;62.43;100775.44;5071032;28;20465;-66
2022/01/12 09:43:40;;;;;;;9.93;8.50;;;;;;;2.17;63.29;100762.66;5072122;28;20507;-66
2022/01/12 09:46:08;;;;;;;9.67;8.57;;;;;;;2.11;63.86;100759.66;5071439;28;20505;-65
2022/01/12 09:48:36;;;;;;;8.63;7.77;;;;;;;2.12;62.50;100762.16;5071327;28;20499;-67
2022/01/12 09:51:06;;;;;;;7.93;7.17;;;;;;;2.21;63.32;100761.50;5070723;28;20445;-65
2022/01/12 09:53:36;;;;;;;15.50;9.10;;;;;;;2.05;63.39;100757.50;5069254;28;20937;-69
2022/01/12 09:56:12;;;;;;;8.30;7.60;;;;;;;2.11;62.69;100755.25;5070438;28;20434;-69
2022/01/12 09:58:40;;;;;;;6.77;6.17;;;;;;;2.19;62.68;100755.53;5068848;28;20426;-69
2022/01/12 10:01:07;;;;;;;11.07;8.87;;;;;;;2.20;62.96;100749.34;5070662;28;20474;-69
2022/01/12 10:03:34;;;;;;;9.07;8.17;;;;;;;2.32;63.70;100753.69;5069542;28;20434;-66
2022/01/12 10:06:12;;;;;;;9.97;8.20;;;;;;;2.42;63.26;100749.44;5069766;28;20491;-67
2022/01/12 10:08:40;;;;;;;8.83;7.93;;;;;;;2.41;63.68;100742.50;5070440;28;20426;-68
2022/01/12 10:11:08;;;;;;;16.97;10.53;;;;;;;2.40;63.90;100746.09;5069486;28;20434;-68
2022/01/12 10:13:37;;;;;;;8.60;7.77;;;;;;;2.40;63.73;100740.00;5071037;28;20434;-67
2022/01/12 10:16:14;;;;;;;11.37;10.10;;;;;;;2.45;62.54;100749.19;5071575;28;20449;-70
2022/01/12 10:18:48;;;;;;;8.17;6.93;;;;;;;2.64;63.05;100746.03;5071711;28;20490;-68
2022/01/12 10:21:29;;;;;;;8.07;6.77;;;;;;;2.68;62.98;100735.22;5069182;28;20477;-68
2022/01/12 10:24:01;;;;;;;7.50;6.90;;;;;;;2.67;62.27;100751.91;5068693;28;21020;-68
2022/01/12 10:26:30;;;;;;;7.97;7.07;;;;;;;2.75;62.12;100746.94;5068815;28;20784;-67
2022/01/12 10:29:03;;;;;;;8.17;7.40;;;;;;;2.53;63.17;100741.59;5067594;28;20446;-68
2022/01/12 10:31:42;;;;;;;8.20;7.40;;;;;;;2.69;63.59;100741.31;5066343;28;20442;-68
2022/01/12 10:34:18;;;;;;;8.33;7.60;;;;;;;2.73;62.64;100737.50;5066467;28;20469;-68
2022/01/12 10:36:46;;;;;;;10.60;7.70;;;;;;;2.65;63.33;100751.19;5068027;28;20441;-68
2022/01/12 10:39:15;;;;;;;11.03;8.57;;;;;;;2.72;62.77;100748.94;5071343;28;20511;-68
2022/01/12 10:41:53;;;;;;;11.20;8.37;;;;;;;2.78;63.03;100751.09;5055370;28;20865;-68
2022/01/12 10:44:21;;;;;;;8.53;7.33;;;;;;;2.56;62.37;100746.63;5053394;28;20435;-68
2022/01/12 10:46:49;;;;;;;8.33;7.57;;;;;;;2.59;62.41;100754.28;5054053;28;20501;-68
2022/01/12 10:49:20;;;;;;;7.70;7.03;;;;;;;2.45;62.93;100751.81;5054079;28;20484;-68
2022/01/12 10:51:56;;;;;;;8.90;7.43;;;;;;;2.54;62.28;100748.53;5054049;28;20464;-68
2022/01/12 10:54:23;;;;;;;6.97;6.30;;;;;;;2.70;62.89;100756.09;5055320;28;20605;-68
2022/01/12 10:56:50;;;;;;;8.57;7.73;;;;;;;2.75;62.33;100752.16;5055089;28;20497;-68
2022/01/12 10:59:18;;;;;;;13.60;10.43;;;;;;;2.72;62.90;100757.63;5053968;28;20438;-68
2022/01/12 11:01:44;;;;;;;16.67;11.40;;;;;;;2.70;62.77;100758.72;5052846;28;20531;-68
2022/01/12 11:04:13;;;;;;;20.57;12.10;;;;;;;2.62;64.10;100746.16;5052561;28;20888;-68
2022/01/12 11:06:40;;;;;;;13.30;11.30;;;;;;;2.50;64.34;100739.22;5052858;28;20442;-68
2022/01/12 11:09:07;;;;;;;17.43;9.57;;;;;;;2.64;65.24;100746.88;5052642;28;20430;-68
2022/01/12 11:11:34;;;;;;;11.37;8.60;;;;;;;2.76;64.75;100747.75;5052376;28;21051;-69
2022/01/12 11:14:02;;;;;;;8.73;7.80;;;;;;;2.76;65.58;100742.50;5052599;28;20438;-69
2022/01/12 11:16:29;;;;;;;10.97;8.10;;;;;;;2.73;65.68;100746.19;5053127;28;20938;-68
2022/01/12 11:18:58;;;;;;;8.73;7.93;;;;;;;2.78;64.73;100745.84;5053180;28;20439;-68
2022/01/12 11:21:36;;;;;;;9.17;8.13;;;;;;;2.78;64.91;100741.41;5054206;28;20474;-69
2022/01/12 11:24:05;;;;;;;9.57;8.33;;;;;;;2.53;65.21;100736.34;5054426;28;20871;-67
2022/01/12 11:26:33;;;;;;;8.17;7.47;;;;;;;2.60;65.45;100737.56;5054800;28;20439;-68
2022/01/12 11:29:00;;;;;;;8.43;7.57;;;;;;;2.73;64.86;100737.50;5054888;28;20438;-68
2022/01/12 11:31:29;;;;;;;11.20;9.70;;;;;;;2.69;66.31;100731.63;5054537;28;20439;-68
2022/01/12 11:33:56;;;;;;;13.87;10.90;;;;;;;2.73;65.27;100730.44;5059546;28;20470;-68
2022/01/12 11:36:25;;;;;;;13.37;10.77;;;;;;;2.86;65.84;100725.13;5074421;28;20475;-68
2022/01/12 11:39:01;;;;;;;12.43;9.93;;;;;;;2.80;65.96;100734.28;5074519;28;20438;-68
2022/01/12 11:41:29;;;;;;;10.20;9.13;;;;;;;2.88;64.83;100729.28;5074190;28;20454;-68
2022/01/12 11:44:05;;;;;;;16.13;9.63;;;;;;;2.98;64.91;100730.25;5073815;28;20835;-68
2022/01/12 11:46:44;;;;;;;8.60;7.77;;;;;;;3.05;64.11;100728.81;5073924;28;20943;-69
2022/01/12 11:49:11;;;;;;;9.93;9.03;;;;;;;3.11;64.16;100738.84;5071285;28;20929;-67
2022/01/12 11:51:40;;;;;;;7.80;7.10;;;;;;;3.27;64.32;100744.56;5073390;28;20474;-68
2022/01/12 11:54:10;;;;;;;7.93;7.23;;;;;;;3.33;62.91;100738.88;5074034;28;20946;-68
2022/01/12 11:56:37;;;;;;;12.00;8.83;;;;;;;3.41;63.83;100740.88;5072373;28;20430;-67
2022/01/12 11:59:09;;;;;;;8.50;7.70;;;;;;;3.42;63.04;100747.78;5074168;28;20430;-68
2022/01/12 12:01:45;;;;;;;9.77;8.97;;;;;;;3.43;62.69;100741.63;5074155;28;20518;-68
2022/01/12 12:04:23;;;;;;;10.47;9.13;;;;;;;3.55;63.34;100753.78;5073965;28;20440;-68
2022/01/12 12:06:51;;;;;;;9.53;7.40;;;;;;;3.58;63.43;100754.38;5073630;28;20460;-68
2022/01/12 12:09:19;;;;;;;8.63;7.83;;;;;;;3.56;62.40;100750.19;5073802;28;20438;-69
2022/01/12 12:11:51;;;;;;;8.37;7.53;;;;;;;3.59;63.22;100750.78;5067934;28;21018;-68
2022/01/12 12:14:19;;;;;;;7.40;6.80;;;;;;;3.66;62.76;100757.22;5056452;28;20530;-72
2022/01/12 12:16:46;;;;;;;9.50;8.50;;;;;;;3.69;62.99;100749.09;5052366;28;20466;-72
2022/01/12 12:19:13;;;;;;;10.93;9.93;;;;;;;3.52;64.04;100739.06;5052099;28;20965;-71
2022/01/12 12:21:50;;;;;;;10.23;8.53;;;;;;;3.58;63.37;100743.84;5067889;28;20551;-71
2022/01/12 12:24:19;;;;;;;17.43;11.67;;;;;;;3.66;64.19;100741.47;5063981;28;20487;-71
2022/01/12 12:26:54;;;;;;;23.93;13.80;;;;;;;3.65;64.28;100728.44;5062809;28;21223;-71
2022/01/12 12:29:27;;;;;;;13.13;9.90;;;;;;;3.73;65.51;100742.66;5064820;28;20450;-68
2022/01/12 12:31:56;;;;;;;16.37;10.10;;;;;;;3.71;64.73;100744.53;5065912;28;20461;-69
2022/01/12 12:34:24;;;;;;;11.47;10.37;;;;;;;3.65;65.81;100747.69;5062803;28;20477;-69
2022/01/12 12:36:57;;;;;;;12.00;9.80;;;;;;;3.59;66.72;100739.44;5066700;28;20985;-70
2022/01/12 12:39:28;;;;;;;11.03;9.50;;;;;;;3.67;66.94;100743.13;5070651;28;20453;-71
2022/01/12 12:41:55;;;;;;;13.80;11.07;;;;;;;3.75;66.14;100745.97;5072978;28;20203;-71
2022/01/12 12:44:25;;;;;;;17.27;11.83;;;;;;;3.82;67.86;100747.16;5072666;28;20434;-72
2022/01/12 12:47:04;;;;;;;11.90;9.57;;;;;;;3.76;68.07;100741.56;5071546;28;20200;-72
2022/01/12 12:49:31;;;;;;;13.30;9.27;;;;;;;3.75;68.50;100739.88;5072638;28;20184;-71
2022/01/12 12:52:01;;;;;;;13.43;10.10;;;;;;;3.83;67.61;100751.47;5071606;28;20507;-71
2022/01/12 12:54:29;;;;;;;11.73;10.40;;;;;;;3.70;67.49;100742.03;5072446;28;20508;-72
2022/01/12 12:57:06;;;;;;;10.27;9.17;;;;;;;3.73;68.40;100737.41;5072101;28;20507;-67
2022/01/12 12:59:33;;;;;;;11.97;10.67;;;;;;;3.87;66.76;100752.03;5072329;28;20430;-68
2022/01/12 13:02:00;;;;;;;12.60;11.07;;;;;;;3.88;67.75;100753.72;5071312;28;20572;-69
2022/01/12 13:04:27;;;;;;;14.77;11.57;;;;;;;3.92;67.41;100750.72;5072284;28;20787;-68